• Join FlightAware (Why Join?)
  • Login
  • US Flag 
04:14AM EDT


 

Airport Tracker/Info


-or-


 

Live Flight TrackerFlight Track Log ✈ GJS3706 ✈ 12-May-2013 ✈ KBTV - KORD

Flight Track Log - Related Links

Times and Time Zones

All times are in EDT time to prevent confusion due to time zone crossing. See the GJS3706 flight status page for this flight to view local times or setup timezone preferences in your user account.

Time Position Orientation Groundspeed Altitude Reporting Facility
EDT Latitude Longitude Course Direction KTS MPH feet Rate Location/Type
11:38AM 44.3765 -73.6541 253° West  Level FlightAware Approximate
11:38AM 44.4881 -73.4614 258° West 262 302 9,300  Level Boston Center
11:39AM 44.3552 -73.7806 259° West  Level FlightAware Approximate
11:39AM 44.4706 -73.5425 253° West 262 302 10,300  Level Boston Center
11:40AM 44.3370 -73.9081 259° West  Level FlightAware Approximate
11:40AM 44.4442 -73.6789 255° West 308 354 11,400  Level Boston Center
11:41AM 44.3143 -74.0342 255° West  Level FlightAware Approximate
11:41AM 44.4156 -73.8294 255° West 348 400 13,600  Level Boston Center
11:42AM 44.2903 -74.1598 255° West  Level FlightAware Approximate
11:42AM 44.3867 -73.9681 254° West 367 422 15,700  Level Boston Center
11:43AM 44.2664 -74.2853 258° West  Level FlightAware Approximate
11:43AM 44.3597 -74.1067 255° West 367 422 17,300  Level Boston Center
11:44AM 44.3328 -74.2425 255° West 372 428 19,300 1,500 Climbing Boston Center
11:46AM 44.3033 -74.3836 254° West 378 435 20,600 1,260 Climbing Boston Center
11:47AM 44.2711 -74.5594 256° West 383 441 22,100 1,320 Climbing Boston Center
11:48AM 44.2411 -74.7006 254° West 383 441 23,300 1,200 Climbing Boston Center
11:49AM 44.2133 -74.8442 255° West 383 441 24,500 1,080 Climbing Boston Center
11:50AM 44.1831 -74.9878 254° West 388 447 25,500 1,020 Climbing Boston Center
11:51AM 44.1528 -75.1311 254° West 388 447 26,600 1,020 Climbing Boston Center
11:52AM 44.1242 -75.2775 255° West 393 452 27,600 1,080 Climbing Boston Center
11:53AM 44.0914 -75.4233 253° West 393 452 28,800 1,200 Climbing Boston Center
11:54AM 44.0628 -75.5578 254° West 382 440 30,100 960 Climbing Boston Center
11:55AM 44.0339 -75.6950 254° West 376 433 30,800 600 Climbing Boston Center
11:56AM 44.0047 -75.8378 254° West 381 438 31,300 480 Climbing Boston Center
11:57AM 43.9733 -75.9831 253° West 381 438 31,800 480 Climbing Boston Center
11:58AM 43.9497 -76.1317 258° West 392 451 32,300 600 Climbing Boston Center
11:59AM 43.9342 -76.2894 262° West 403 464 33,100 840 Climbing Boston Center
12:00PM 43.9228 -76.4444 264° West 408 470 34,000 960 Climbing Boston Center
12:01PM 43.9094 -76.5819 262° West 413 475 35,100 960 Climbing Boston Center
12:01PM 43.9000 -76.6667 261° West 400 460 35,600 540 Climbing Toronto Center
12:02PM 43.8833 -76.8167 261° West 390 449 36,000 180 Climbing Toronto Center
12:03PM 43.8500 -76.9667 253° West 400 460 36,000  Level Toronto Center
12:04PM 43.8833 -77.1167 287° West 410 472 36,000  Level Toronto Center
12:05PM 43.9667 -77.2167 319° Northwest 440 506 36,000  Level Toronto Center
12:06PM 44.0500 -77.3667 308° West 440 506 36,000  Level Toronto Center
12:07PM 44.1500 -77.4667 324° Northwest 440 506 36,000  Level Toronto Center
12:08PM 44.2333 -77.5833 315° West 440 506 36,000  Level Toronto Center
12:09PM 44.3167 -77.7000 315° West 450 518 36,000  Level Toronto Center
12:10PM 44.3833 -77.8667 299° West 430 495 36,000  Level Toronto Center
12:11PM 44.3833 -78.0000 270° West 410 472 36,000  Level Toronto Center
12:12PM 44.3500 -78.1333 251° West 400 460 36,000  Level Toronto Center
12:13PM 44.3167 -78.3000 254° West 400 460 36,000  Level Toronto Center
12:14PM 44.2833 -78.4500 253° West 400 460 36,000  Level Toronto Center
12:15PM 44.2667 -78.6000 261° West 400 460 36,000  Level Toronto Center
12:16PM 44.2333 -78.7333 251° West 380 437 36,000  Level Toronto Center
12:17PM 44.2000 -78.8667 251° West 370 426 36,000  Level Toronto Center
12:18PM 44.1667 -79.0000 251° West 380 437 36,000  Level Toronto Center
12:19PM 44.1333 -79.1667 254° West 390 449 36,000  Level Toronto Center
12:20PM 44.1000 -79.3000 251° West 390 449 36,000  Level Toronto Center
12:21PM 44.0667 -79.4500 253° West 390 449 36,000  Level Toronto Center
12:22PM 44.0333 -79.5833 251° West 390 449 36,000  Level Toronto Center
12:23PM 44.0000 -79.7333 253° West 400 460 36,000  Level Toronto Center
12:24PM 43.9500 -79.8833 245° Southwest 400 460 36,000  Level Toronto Center
12:25PM 43.9167 -80.0333 253° West 400 460 36,000  Level Toronto Center
12:26PM 43.8833 -80.1833 253° West 410 472 36,000  Level Toronto Center
12:27PM 43.8500 -80.3333 253° West 400 460 36,000  Level Toronto Center
12:28PM 43.8167 -80.4667 251° West 400 460 36,000  Level Toronto Center
12:29PM 43.7833 -80.6333 255° West 400 460 36,000  Level Toronto Center
12:30PM 43.7500 -80.7667 251° West 400 460 36,000  Level Toronto Center
12:31PM 43.7000 -80.9000 243° Southwest 400 460 36,000  Level Toronto Center
12:32PM 43.6667 -81.0667 255° West 400 460 36,000  Level Toronto Center
12:33PM 43.6333 -81.2000 251° West 410 472 36,000  Level Toronto Center
12:34PM 43.6000 -81.3667 255° West 410 472 36,000  Level Toronto Center
12:35PM 43.5667 -81.5000 251° West 400 460 36,000  Level Toronto Center
12:36PM 43.5167 -81.6333 243° Southwest 400 460 36,000  Level Toronto Center
12:37PM 43.4833 -81.8000 255° West 400 460 36,000  Level Toronto Center
12:38PM 43.4333 -81.9333 243° Southwest 400 460 36,000  Level Toronto Center
12:39PM 43.4000 -82.0667 251° West 400 460 36,000  Level Toronto Center
12:40PM 43.3883 -82.2228 264° West 407 468 36,000  Level Cleveland Center
12:41PM 43.3489 -82.3644 249° West 407 468 36,000  Level Cleveland Center
12:42PM 43.3111 -82.5119 251° West 407 468 36,000  Level Cleveland Center
12:43PM 43.2711 -82.6589 250° West 412 474 36,000  Level Cleveland Center
12:44PM 43.2328 -82.8058 250° West 412 474 36,000  Level Cleveland Center
12:45PM 43.1903 -82.9494 248° West 412 474 36,000  Level Cleveland Center
12:46PM 43.1542 -83.0792 249° West 412 474 36,000  Level Cleveland Center
12:47PM 43.1136 -83.2225 249° West 407 468 36,000  Level Cleveland Center
12:48PM 43.0747 -83.3658 250° West 407 468 36,000  Level Cleveland Center
12:49PM 43.0336 -83.5117 249° West 407 468 36,000 -60 Level Cleveland Center
12:50PM 42.9925 -83.6544 249° West 407 468 35,900 -600 Descending Cleveland Center
12:51PM 42.9614 -83.7978 254° West 407 468 34,800 -1,080 Descending Cleveland Center
12:52PM 42.9447 -83.9472 261° West 399 459 33,800 -1,020 Descending Cleveland Center
12:53PM 42.9339 -84.0969 264° West 399 459 32,800 -720 Descending Cleveland Center
12:55PM 42.9092 -84.3503 262° West 407 468 32,000 -300 Descending Chicago Center
12:56PM 42.8928 -84.5011 262° West 405 466 32,000  Level Chicago Center
12:57PM 42.8733 -84.6867 262° West 412 474 32,000  Level Chicago Center
12:58PM 42.8578 -84.8433 262° West 417 480 32,000  Level Chicago Center
12:59PM 42.8408 -84.9961 261° West 412 474 32,000 -120 Level Chicago Center
01:00PM 42.8242 -85.1497 262° West 411 473 31,800 -1,020 Descending Chicago Center
01:01PM 42.8072 -85.3094 262° West 419 482 30,000 -1,860 Descending Chicago Center
01:02PM 42.7894 -85.4697 261° West 426 490 28,000 -1,980 Descending Chicago Center
01:03PM 42.7650 -85.6203 258° West 413 475 26,000 -2,160 Descending Chicago Center
01:04PM 42.7336 -85.7919 256° West 393 452 23,600 -1,860 Descending Chicago Center
01:05PM 42.7078 -85.9319 256° West 384 442 22,200 -1,200 Descending Chicago Center
01:06PM 42.6833 -86.0672 256° West 371 427 21,200 -1,020 Descending Chicago Center
01:07PM 42.6589 -86.2022 256° West 366 421 20,200 -900 Descending Chicago Center
01:08PM 42.6331 -86.3358 255° West 365 420 19,400 -1,320 Descending Chicago Center
01:09PM 42.6094 -86.4658 256° West 357 411 17,500 -1,860 Descending Chicago Center
01:10PM 42.5853 -86.5914 255° West 344 396 15,600 -1,500 Descending Chicago Center
01:11PM 42.5658 -86.7044 257° West 313 360 14,500 -1,140 Descending Chicago Center
01:12PM 42.5356 -86.8219 251° West 279 321 13,300 -1,140 Descending Chicago Center
01:13PM 42.5083 -86.9192 249° West 277 319 12,200 -1,020 Descending Chicago Center
01:14PM 42.4833 -87.0144 250° West 271 312 11,200 -1,020 Descending Chicago Center
01:15PM 42.4553 -87.1097 248° West 272 313 10,200 -960 Descending Chicago Center
01:16PM 42.4108 -87.1917 234° Southwest 281 323 9,300 -960 Descending Chicago Center
01:17PM 42.3469 -87.2531 215° Southwest 282 325 8,300 -1,020 Descending Chicago Center
01:19PM 42.2786 -87.3175 215° Southwest 275 316 7,200 -1,080 Descending Chicago Center
01:20PM 42.2214 -87.3803 219° Southwest 268 308 6,200 -1,020 Descending Chicago Center
01:21PM 42.1814 -87.4617 236° Southwest 261 300 5,200 -900 Descending Chicago Center
01:22PM 42.1339 -87.5500 234° Southwest 249 287 4,400 -780 Descending Chicago Center
01:22PM 42.1167 -87.5833 235° Southwest 247 284 4,100 -780 Descending Chicago TRACON
01:23PM 42.0833 -87.6500 236° Southwest 226 260 3,300 -840 Descending Chicago TRACON
01:24PM 42.0500 -87.7167 236° Southwest 214 246 2,500 -840 Descending Chicago TRACON